^^
Datos históricos de la estación: Murcia-Puente Tocinos
Diario Informe para Abril 25, 2019 Unidades:  Ambas    Inglés   Métrico
Diario Semanal Mensual Anual Configurable
  Máximo: Mínimo: Media:
Temperatura: 75.2 °F /  24.0 °C 53.1 °F /  11.7 °C 63.5 °F /  17.5 °C
Punto de rocio: 55 °F /  12.8 °C 42.3 °F /  5.7 °C 50.4 °F /  10.2 °C
Humedad: 91% 33% 65%
Velocidad viento: 15.2mph /  24.5km/h - 4.8mph /  7.8km/h
Racha viento: 26.5mph /  42.6km/h - -
Viento- - WSW
Presión: 30 in /  1016.8 hPa 29.8 in /  1009.2 hPa -
Precipitación: 0 in /  0.0 mm    
Historical Graphs
 
 
Tabla de datos para Abril 25, 2019
Hora Temperatura Punto de rocio Presión Viento Velocidad viento Racha viento Humedad Intensidad lluvia(por hora) Nubes
00:00 59.4 °F /  15.2 °C 51.1 °F /  10.6 °C 29.8in /  1010.0hPa ESE 5mph /  8.0km/h 6mph /  9.7km/h 74% 0in /  0.0mm CLR
00:05 59.4 °F /  15.2 °C 51.1 °F /  10.6 °C 29.8in /  1010.0hPa NW 4.3mph /  6.9km/h 2.3mph /  3.7km/h 74% 0in /  0.0mm CLR
00:10 59.4 °F /  15.2 °C 51.4 °F /  10.8 °C 29.8in /  1010.0hPa NW 2mph /  3.2km/h 3.5mph /  5.6km/h 75% 0in /  0.0mm CLR
00:15 59.2 °F /  15.1 °C 51.3 °F /  10.7 °C 29.8in /  1010.0hPa NW 2mph /  3.2km/h 8.1mph /  13.0km/h 75% 0in /  0.0mm CLR
00:20 59 °F /  15.0 °C 51.4 °F /  10.8 °C 29.8in /  1010.1hPa NNW 4.3mph /  6.9km/h 5.8mph /  9.3km/h 76% 0in /  0.0mm CLR
00:25 58.8 °F /  14.9 °C 51.6 °F /  10.9 °C 29.8in /  1010.1hPa NNW 4.3mph /  6.9km/h 4.6mph /  7.4km/h 77% 0in /  0.0mm CLR
00:30 58.8 °F /  14.9 °C 51.6 °F /  10.9 °C 29.8in /  1010.1hPa NNW 2.4mph /  3.9km/h 2.3mph /  3.7km/h 77% 0in /  0.0mm CLR
00:35 58.8 °F /  14.9 °C 51.6 °F /  10.9 °C 29.8in /  1010.3hPa NNW 2.4mph /  3.9km/h 3.5mph /  5.6km/h 77% 0in /  0.0mm CLR
00:40 58.6 °F /  14.8 °C 51.8 °F /  11.0 °C 29.8in /  1010.3hPa NE 2mph /  3.2km/h 3.5mph /  5.6km/h 78% 0in /  0.0mm CLR
00:45 58.6 °F /  14.8 °C 51.8 °F /  11.0 °C 29.8in /  1010.3hPa NE 2mph /  3.2km/h 2.9mph /  4.7km/h 78% 0in /  0.0mm CLR
00:50 58.5 °F /  14.7 °C 51.6 °F /  10.9 °C 29.8in /  1010.4hPa East 2mph /  3.2km/h 6.9mph /  11.1km/h 78% 0in /  0.0mm CLR
00:55 58.1 °F /  14.5 °C 51.6 °F /  10.9 °C 29.8in /  1010.4hPa SE 2mph /  3.2km/h 4.6mph /  7.4km/h 79% 0in /  0.0mm CLR
01:00 57.7 °F /  14.3 °C 51.6 °F /  10.9 °C 29.8in /  1010.4hPa ESE 3mph /  4.8km/h 6mph /  9.7km/h 80% 0in /  0.0mm CLR
01:05 57.4 °F /  14.1 °C 51.6 °F /  10.9 °C 29.8in /  1010.3hPa ESE 3.1mph /  5.0km/h 5.8mph /  9.3km/h 81% 0in /  0.0mm CLR
01:10 57 °F /  13.9 °C 51.3 °F /  10.7 °C 29.8in /  1010.3hPa NE 4mph /  6.4km/h 2.4mph /  3.9km/h 81% 0in /  0.0mm CLR
01:15 56.8 °F /  13.8 °C 51.4 °F /  10.8 °C 29.8in /  1010.3hPa ESE 4mph /  6.4km/h 4.6mph /  7.4km/h 82% 0in /  0.0mm CLR
01:20 56.8 °F /  13.8 °C 51.4 °F /  10.8 °C 29.8in /  1010.3hPa ESE 1.8mph /  2.9km/h 2.3mph /  3.7km/h 82% 0in /  0.0mm CLR
01:25 57 °F /  13.9 °C 51.6 °F /  10.9 °C 29.8in /  1010.3hPa ESE 1.8mph /  2.9km/h   82% 0in /  0.0mm CLR
01:30 57 °F /  13.9 °C 51.6 °F /  10.9 °C 29.8in /  1010.3hPa Calm     82% 0in /  0.0mm CLR
01:35 57.4 °F /  14.1 °C 51.6 °F /  10.9 °C 29.8in /  1010.3hPa Calm   4.6mph /  7.4km/h 81% 0in /  0.0mm CLR
01:40 57.4 °F /  14.1 °C 51.6 °F /  10.9 °C 29.8in /  1010.3hPa NNE 2mph /  3.2km/h 3.5mph /  5.6km/h 81% 0in /  0.0mm CLR
01:45 57 °F /  13.9 °C 51.3 °F /  10.7 °C 29.8in /  1010.3hPa NE 2mph /  3.2km/h 5.2mph /  8.4km/h 81% 0in /  0.0mm CLR
01:50 56.8 °F /  13.8 °C 51.4 °F /  10.8 °C 29.8in /  1010.2hPa NE 2.9mph /  4.7km/h 2.3mph /  3.7km/h 82% 0in /  0.0mm CLR
01:55 56.5 °F /  13.6 °C 51.1 °F /  10.6 °C 29.8in /  1010.2hPa North 2.9mph /  4.7km/h 5.8mph /  9.3km/h 82% 0in /  0.0mm CLR
02:00 56.1 °F /  13.4 °C 51.1 °F /  10.6 °C 29.8in /  1010.2hPa NNE 2mph /  3.2km/h 6mph /  9.7km/h 83% 0in /  0.0mm CLR
02:05 55.8 °F /  13.2 °C 51.1 °F /  10.6 °C 29.8in /  1010.2hPa NNW 2.9mph /  4.7km/h 3.6mph /  5.8km/h 84% 0in /  0.0mm CLR
02:10 55.8 °F /  13.2 °C 51.3 °F /  10.7 °C 29.8in /  1010.2hPa NNW 2.9mph /  4.7km/h 2.3mph /  3.7km/h 85% 0in /  0.0mm CLR
02:15 55.6 °F /  13.1 °C 51.1 °F /  10.6 °C 29.8in /  1010.2hPa NNW 2.9mph /  4.7km/h 2.3mph /  3.7km/h 85% 0in /  0.0mm CLR
02:20 55.6 °F /  13.1 °C 51.4 °F /  10.8 °C 29.8in /  1010.3hPa NNW 1.4mph /  2.3km/h   86% 0in /  0.0mm CLR
02:25 55.6 °F /  13.1 °C 51.4 °F /  10.8 °C 29.8in /  1010.3hPa NNW 1.4mph /  2.3km/h 2mph /  3.2km/h 86% 0in /  0.0mm CLR
02:30 55.6 °F /  13.1 °C 51.4 °F /  10.8 °C 29.8in /  1010.3hPa Calm   3mph /  4.8km/h 86% 0in /  0.0mm CLR
02:35 55.8 °F /  13.2 °C 51.6 °F /  10.9 °C 29.8in /  1010.4hPa Calm   4.6mph /  7.4km/h 86% 0in /  0.0mm CLR
02:40 55.8 °F /  13.2 °C 51.6 °F /  10.9 °C 29.8in /  1010.4hPa West 1.8mph /  2.9km/h 4.6mph /  7.4km/h 86% 0in /  0.0mm CLR
02:45 55.8 °F /  13.2 °C 51.6 °F /  10.9 °C 29.8in /  1010.4hPa West 1.8mph /  2.9km/h   86% 0in /  0.0mm CLR
02:50 55.8 °F /  13.2 °C 51.6 °F /  10.9 °C 29.8in /  1010.4hPa West 1.4mph /  2.3km/h 1.4mph /  2.3km/h 86% 0in /  0.0mm CLR
02:55 55.9 °F /  13.3 °C 51.8 °F /  11.0 °C 29.8in /  1010.4hPa ESE 1.4mph /  2.3km/h 4.6mph /  7.4km/h 86% 0in /  0.0mm CLR
03:00 56.1 °F /  13.4 °C 51.6 °F /  10.9 °C 29.8in /  1010.4hPa SE 2mph /  3.2km/h 7mph /  11.3km/h 85% 0in /  0.0mm CLR
03:05 55.9 °F /  13.3 °C 51.4 °F /  10.8 °C 29.8in /  1010.1hPa East 2.4mph /  3.9km/h 4.6mph /  7.4km/h 85% 0in /  0.0mm CLR
03:10 55.8 °F /  13.2 °C 51.6 °F /  10.9 °C 29.8in /  1010.1hPa East 3.1mph /  5.0km/h 5.2mph /  8.4km/h 86% 0in /  0.0mm CLR
03:15 55.6 °F /  13.1 °C 51.4 °F /  10.8 °C 29.8in /  1010.1hPa East 3.1mph /  5.0km/h 4.6mph /  7.4km/h 86% 0in /  0.0mm CLR
03:20 55.6 °F /  13.1 °C 51.4 °F /  10.8 °C 29.8in /  1009.9hPa East 2.9mph /  4.7km/h   86% 0in /  0.0mm CLR
03:25 55.6 °F /  13.1 °C 51.4 °F /  10.8 °C 29.8in /  1009.9hPa East 2mph /  3.2km/h 2mph /  3.2km/h 86% 0in /  0.0mm CLR
03:30 55.6 °F /  13.1 °C 51.4 °F /  10.8 °C 29.8in /  1009.9hPa Calm   3.6mph /  5.8km/h 86% 0in /  0.0mm CLR
03:35 55.4 °F /  13.0 °C 51.3 °F /  10.7 °C 29.8in /  1009.9hPa Calm   2.3mph /  3.7km/h 86% 0in /  0.0mm CLR
03:40 55.2 °F /  12.9 °C 51.1 °F /  10.6 °C 29.8in /  1009.7hPa North 2mph /  3.2km/h 5mph /  8.0km/h 86% 0in /  0.0mm CLR
03:45 55 °F /  12.8 °C 50.9 °F /  10.5 °C 29.8in /  1009.7hPa NNE 1.8mph /  2.9km/h 4.6mph /  7.4km/h 86% 0in /  0.0mm CLR
03:50 54.9 °F /  12.7 °C 51.1 °F /  10.6 °C 29.8in /  1009.7hPa NW 3.1mph /  5.0km/h 4.6mph /  7.4km/h 87% 0in /  0.0mm CLR
03:55 54.7 °F /  12.6 °C 50.9 °F /  10.5 °C 29.8in /  1009.7hPa NNW 3mph /  4.8km/h 7mph /  11.3km/h 87% 0in /  0.0mm CLR
04:00 54.5 °F /  12.5 °C 51.1 °F /  10.6 °C 29.8in /  1009.7hPa NW 3mph /  4.8km/h 6mph /  9.7km/h 88% 0in /  0.0mm CLR
04:05 54.5 °F /  12.5 °C 51.1 °F /  10.6 °C 29.8in /  1009.7hPa NW 3mph /  4.8km/h 5mph /  8.0km/h 88% 0in /  0.0mm CLR
04:10 54.7 °F /  12.6 °C 51.4 °F /  10.8 °C 29.8in /  1009.8hPa West 3.1mph /  5.0km/h 2.3mph /  3.7km/h 89% 0in /  0.0mm CLR
04:15 54.7 °F /  12.6 °C 51.4 °F /  10.8 °C 29.8in /  1009.8hPa West 3.1mph /  5.0km/h   89% 0in /  0.0mm CLR
04:19 54.7 °F /  12.6 °C 51.3 °F /  10.7 °C 29.8in /  1009.9hPa Calm   1.2mph /  1.9km/h 88% 0in /  0.0mm CLR
04:25 54.9 °F /  12.7 °C 51.4 °F /  10.8 °C 29.8in /  1009.9hPa Calm   4.6mph /  7.4km/h 88% 0in /  0.0mm CLR
04:30 54.7 °F /  12.6 °C 51.3 °F /  10.7 °C 29.8in /  1009.9hPa SE 2.9mph /  4.7km/h 4.6mph /  7.4km/h 88% 0in /  0.0mm CLR
04:34 54.5 °F /  12.5 °C 51.1 °F /  10.6 °C 29.8in /  1009.7hPa SSE 2.9mph /  4.7km/h 4.3mph /  6.9km/h 88% 0in /  0.0mm CLR
04:39 54.3 °F /  12.4 °C 50.7 °F /  10.4 °C 29.8in /  1009.7hPa South 3.1mph /  5.0km/h 4.6mph /  7.4km/h 88% 0in /  0.0mm CLR
04:45 54.3 °F /  12.4 °C 51.1 °F /  10.6 °C 29.8in /  1009.7hPa South 3.1mph /  5.0km/h   89% 0in /  0.0mm CLR
04:49 54.3 °F /  12.4 °C 51.1 °F /  10.6 °C 29.8in /  1009.6hPa Calm   3.1mph /  5.0km/h 89% 0in /  0.0mm CLR
04:55 54.7 °F /  12.6 °C 51.4 °F /  10.8 °C 29.8in /  1009.6hPa Calm   3.5mph /  5.6km/h 89% 0in /  0.0mm CLR
04:59 54.7 °F /  12.6 °C 51.3 °F /  10.7 °C 29.8in /  1009.6hPa Calm   4.6mph /  7.4km/h 88% 0in /  0.0mm CLR
05:05 54.7 °F /  12.6 °C 51.3 °F /  10.7 °C 29.8in /  1009.5hPa SSW 2.9mph /  4.7km/h   88% 0in /  0.0mm CLR
05:10 54.9 °F /  12.7 °C 51.4 °F /  10.8 °C 29.8in /  1009.5hPa SSW 1.8mph /  2.9km/h   88% 0in /  0.0mm CLR
05:15 54.9 °F /  12.7 °C 51.4 °F /  10.8 °C 29.8in /  1009.5hPa NW 1.8mph /  2.9km/h 1.4mph /  2.3km/h 88% 0in /  0.0mm CLR
05:20 54.5 °F /  12.5 °C 51.1 °F /  10.6 °C 29.8in /  1009.5hPa NW 1.8mph /  2.9km/h 5.9mph /  9.5km/h 88% 0in /  0.0mm CLR
05:25 54.1 °F /  12.3 °C 50.7 °F /  10.4 °C 29.8in /  1009.5hPa NNW 1.8mph /  2.9km/h 5.8mph /  9.3km/h 88% 0in /  0.0mm CLR
05:30 54.1 °F /  12.3 °C 51.1 °F /  10.6 °C 29.8in /  1009.5hPa NNW 3.6mph /  5.8km/h 2.3mph /  3.7km/h 89% 0in /  0.0mm CLR
05:35 54.1 °F /  12.3 °C 51.1 °F /  10.6 °C 29.8in /  1009.7hPa NNW 3.6mph /  5.8km/h   89% 0in /  0.0mm CLR
05:40 54.1 °F /  12.3 °C 51.1 °F /  10.6 °C 29.8in /  1009.7hPa Calm     89% 0in /  0.0mm CLR
05:45 54.1 °F /  12.3 °C 51.3 °F /  10.7 °C 29.8in /  1009.7hPa Calm   3.5mph /  5.6km/h 90% 0in /  0.0mm CLR
05:50 54.3 °F /  12.4 °C 51.1 °F /  10.6 °C 29.8in /  1009.5hPa ESE 1.8mph /  2.9km/h 6.9mph /  11.1km/h 89% 0in /  0.0mm CLR
05:55 54 °F /  12.2 °C 50.7 °F /  10.4 °C 29.8in /  1009.5hPa ESE 1.8mph /  2.9km/h 4.6mph /  7.4km/h 89% 0in /  0.0mm CLR
06:00 54 °F /  12.2 °C 50.7 °F /  10.4 °C 29.8in /  1009.5hPa East 3mph /  4.8km/h 3mph /  4.8km/h 89% 0in /  0.0mm CLR
06:05 54 °F /  12.2 °C 50.7 °F /  10.4 °C 29.8in /  1009.5hPa NE 3.1mph /  5.0km/h   89% 0in /  0.0mm CLR
06:10 53.8 °F /  12.1 °C 50.9 °F /  10.5 °C 29.8in /  1009.5hPa ENE 1.4mph /  2.3km/h   90% 0in /  0.0mm CLR
06:15 54 °F /  12.2 °C 51.1 °F /  10.6 °C 29.8in /  1009.5hPa North 1.4mph /  2.3km/h 3.5mph /  5.6km/h 90% 0in /  0.0mm CLR
06:20 54 °F /  12.2 °C 51.1 °F /  10.6 °C 29.8in /  1009.6hPa NW 1.4mph /  2.3km/h 4.6mph /  7.4km/h 90% 0in /  0.0mm CLR
06:25 54 °F /  12.2 °C 51.1 °F /  10.6 °C 29.8in /  1009.6hPa WNW 1.4mph /  2.3km/h 2.3mph /  3.7km/h 90% 0in /  0.0mm CLR
06:30 54 °F /  12.2 °C 50.7 °F /  10.4 °C 29.8in /  1009.6hPa NE 1.8mph /  2.9km/h 4.6mph /  7.4km/h 89% 0in /  0.0mm CLR
06:35 53.8 °F /  12.1 °C 50.5 °F /  10.3 °C 29.8in /  1009.3hPa NNE 1.8mph /  2.9km/h 3.5mph /  5.6km/h 89% 0in /  0.0mm CLR
06:40 53.4 °F /  11.9 °C 50.4 °F /  10.2 °C 29.8in /  1009.3hPa NNW 1.8mph /  2.9km/h 4mph /  6.4km/h 89% 0in /  0.0mm CLR
06:45 53.4 °F /  11.9 °C 50.5 °F /  10.3 °C 29.8in /  1009.3hPa NNE 1.8mph /  2.9km/h 2.3mph /  3.7km/h 90% 0in /  0.0mm CLR
06:50 53.2 °F /  11.8 °C 50.4 °F /  10.2 °C 29.8in /  1009.2hPa NNE 2mph /  3.2km/h 4.6mph /  7.4km/h 90% 0in /  0.0mm CLR
06:55 53.2 °F /  11.8 °C 50.4 °F /  10.2 °C 29.8in /  1009.2hPa NW 2mph /  3.2km/h 5.8mph /  9.3km/h 90% 0in /  0.0mm CLR
07:00 53.1 °F /  11.7 °C 50.2 °F /  10.1 °C 29.8in /  1009.2hPa NNW 2mph /  3.2km/h 6mph /  9.7km/h 90% 0in /  0.0mm CLR
07:05 53.1 °F /  11.7 °C 50.5 °F /  10.3 °C 29.8in /  1009.5hPa WNW 2.9mph /  4.7km/h   91% 0in /  0.0mm CLR
07:10 53.1 °F /  11.7 °C 50.5 °F /  10.3 °C 29.8in /  1009.5hPa West 2mph /  3.2km/h 4.6mph /  7.4km/h 91% 0in /  0.0mm CLR
07:15 53.1 °F /  11.7 °C 50.5 °F /  10.3 °C 29.8in /  1009.5hPa South 2mph /  3.2km/h 4.6mph /  7.4km/h 91% 0in /  0.0mm CLR
07:20 53.2 °F /  11.8 °C 50.7 °F /  10.4 °C 29.8in /  1009.5hPa South 2.4mph /  3.9km/h 2.4mph /  3.9km/h 91% 0in /  0.0mm CLR
07:25 53.4 °F /  11.9 °C 50.5 °F /  10.3 °C 29.8in /  1009.5hPa West 2.4mph /  3.9km/h 4.6mph /  7.4km/h 90% 0in /  0.0mm CLR
07:30 53.6 °F /  12.0 °C 50.7 °F /  10.4 °C 29.8in /  1009.5hPa West 2.4mph /  3.9km/h 2.3mph /  3.7km/h 90% 0in /  0.0mm CLR
07:35 53.6 °F /  12.0 °C 50.4 °F /  10.2 °C 29.8in /  1009.8hPa East 2.4mph /  3.9km/h 3.5mph /  5.6km/h 89% 0in /  0.0mm CLR
07:40 53.4 °F /  11.9 °C 50.5 °F /  10.3 °C 29.8in /  1009.8hPa East 2mph /  3.2km/h   90% 0in /  0.0mm CLR
07:45 53.4 °F /  11.9 °C 50.5 °F /  10.3 °C 29.8in /  1009.8hPa NW 2mph /  3.2km/h 3.5mph /  5.6km/h 90% 0in /  0.0mm CLR
07:50 53.2 °F /  11.8 °C 50.2 °F /  10.1 °C 29.8in /  1010.0hPa NNW 1.8mph /  2.9km/h 3.5mph /  5.6km/h 89% 0in /  0.0mm CLR
07:55 53.2 °F /  11.8 °C 50.4 °F /  10.2 °C 29.8in /  1010.0hPa East 1.8mph /  2.9km/h 4.6mph /  7.4km/h 90% 0in /  0.0mm CLR
08:00 53.4 °F /  11.9 °C 50.9 °F /  10.5 °C 29.8in /  1010.0hPa ENE 2mph /  3.2km/h 5mph /  8.0km/h 91% 0in /  0.0mm CLR
08:05 53.6 °F /  12.0 °C 51.1 °F /  10.6 °C 29.8in /  1010.2hPa East 2.4mph /  3.9km/h 2.3mph /  3.7km/h 91% 0in /  0.0mm CLR
08:10 53.8 °F /  12.1 °C 50.9 °F /  10.5 °C 29.8in /  1010.2hPa NW 1.8mph /  2.9km/h 2.4mph /  3.9km/h 90% 0in /  0.0mm CLR
08:15 54.1 °F /  12.3 °C 51.6 °F /  10.9 °C 29.8in /  1010.2hPa NW 1.8mph /  2.9km/h 1.2mph /  1.9km/h 91% 0in /  0.0mm CLR
08:20 54.5 °F /  12.5 °C 51.6 °F /  10.9 °C 29.8in /  1010.2hPa Calm     90% 0in /  0.0mm CLR
08:25 55 °F /  12.8 °C 52 °F /  11.1 °C 29.8in /  1010.2hPa Calm     89% 0in /  0.0mm CLR
08:30 55.4 °F /  13.0 °C 52 °F /  11.1 °C 29.8in /  1010.2hPa Calm     88% 0in /  0.0mm CLR
08:35 55.9 °F /  13.3 °C 52.2 °F /  11.2 °C 29.8in /  1010.3hPa Calm     87% 0in /  0.0mm CLR
08:40 56.3 °F /  13.5 °C 51.8 °F /  11.0 °C 29.8in /  1010.3hPa Calm   4.6mph /  7.4km/h 85% 0in /  0.0mm CLR
08:45 56.5 °F /  13.6 °C 52 °F /  11.1 °C 29.8in /  1010.3hPa Calm     85% 0in /  0.0mm CLR
08:50 56.5 °F /  13.6 °C 52 °F /  11.1 °C 29.8in /  1010.2hPa NNW 1.8mph /  2.9km/h 3.5mph /  5.6km/h 85% 0in /  0.0mm CLR
08:55 56.7 °F /  13.7 °C 52 °F /  11.1 °C 29.8in /  1010.2hPa West 1.8mph /  2.9km/h 4.6mph /  7.4km/h 84% 0in /  0.0mm CLR
09:00 56.7 °F /  13.7 °C 52 °F /  11.1 °C 29.8in /  1010.2hPa WNW 2mph /  3.2km/h 5mph /  8.0km/h 84% 0in /  0.0mm CLR
09:05 57 °F /  13.9 °C 52 °F /  11.1 °C 29.8in /  1010.4hPa West 2.9mph /  4.7km/h 3.5mph /  5.6km/h 83% 0in /  0.0mm CLR
09:10 57.4 °F /  14.1 °C 52.3 °F /  11.3 °C 29.8in /  1010.4hPa West 2.4mph /  3.9km/h 3.6mph /  5.8km/h 83% 0in /  0.0mm CLR
09:15 57.7 °F /  14.3 °C 52.9 °F /  11.6 °C 29.8in /  1010.4hPa NE 2.4mph /  3.9km/h 2.3mph /  3.7km/h 84% 0in /  0.0mm CLR
09:20 58.3 °F /  14.6 °C 53.1 °F /  11.7 °C 29.8in /  1010.5hPa NNE 2mph /  3.2km/h 3.5mph /  5.6km/h 83% 0in /  0.0mm CLR
09:25 58.6 °F /  14.8 °C 53.2 °F /  11.8 °C 29.8in /  1010.5hPa North 2mph /  3.2km/h 4.6mph /  7.4km/h 82% 0in /  0.0mm CLR
09:30 58.8 °F /  14.9 °C 53.2 °F /  11.8 °C 29.8in /  1010.5hPa North 1.8mph /  2.9km/h   82% 0in /  0.0mm CLR
09:35 59.4 °F /  15.2 °C 53.2 °F /  11.8 °C 29.8in /  1010.5hPa NNW 1.8mph /  2.9km/h 3.5mph /  5.6km/h 80% 0in /  0.0mm CLR
09:40 59.7 °F /  15.4 °C 53.2 °F /  11.8 °C 29.8in /  1010.5hPa NNW 1.4mph /  2.3km/h   79% 0in /  0.0mm CLR
09:45 60.1 °F /  15.6 °C 52.5 °F /  11.4 °C 29.8in /  1010.5hPa NNW 1.4mph /  2.3km/h   76% 0in /  0.0mm CLR
09:50 60.3 °F /  15.7 °C 52 °F /  11.1 °C 29.8in /  1010.5hPa Calm     74% 0in /  0.0mm CLR
09:55 60.6 °F /  15.9 °C 51.4 °F /  10.8 °C 29.8in /  1010.5hPa Calm     72% 0in /  0.0mm CLR
10:00 61.2 °F /  16.2 °C 51.6 °F /  10.9 °C 29.8in /  1010.5hPa NE 1mph /  1.6km/h 3mph /  4.8km/h 71% 0in /  0.0mm CLR
10:05 61.5 °F /  16.4 °C 51.3 °F /  10.7 °C 29.8in /  1010.3hPa NE 1.4mph /  2.3km/h 4.6mph /  7.4km/h 69% 0in /  0.0mm CLR
10:10 61.9 °F /  16.6 °C 52 °F /  11.1 °C 29.8in /  1010.3hPa ENE 1.4mph /  2.3km/h 4.6mph /  7.4km/h 70% 0in /  0.0mm CLR
10:15 62.2 °F /  16.8 °C 52.3 °F /  11.3 °C 29.8in /  1010.3hPa NNE 1.4mph /  2.3km/h 4.6mph /  7.4km/h 70% 0in /  0.0mm CLR
10:20 62.2 °F /  16.8 °C 52.3 °F /  11.3 °C 29.8in /  1010.3hPa NE 3.1mph /  5.0km/h 4.6mph /  7.4km/h 70% 0in /  0.0mm CLR
10:25 62.4 °F /  16.9 °C 52.5 °F /  11.4 °C 29.8in /  1010.3hPa NNW 3.1mph /  5.0km/h 2.9mph /  4.7km/h 70% 0in /  0.0mm CLR
10:30 62.6 °F /  17.0 °C 52 °F /  11.1 °C 29.8in /  1010.3hPa NW 2mph /  3.2km/h 4.7mph /  7.6km/h 68% 0in /  0.0mm CLR
10:35 62.8 °F /  17.1 °C 52.2 °F /  11.2 °C 29.8in /  1010.4hPa North 2mph /  3.2km/h 4.6mph /  7.4km/h 68% 0in /  0.0mm CLR
10:40 63 °F /  17.2 °C 52.2 °F /  11.2 °C 29.8in /  1010.4hPa West 2.9mph /  4.7km/h 4.6mph /  7.4km/h 68% 0in /  0.0mm CLR
10:45 63.1 °F /  17.3 °C 52.3 °F /  11.3 °C 29.8in /  1010.4hPa NW 2.9mph /  4.7km/h 4mph /  6.4km/h 68% 0in /  0.0mm CLR
10:50 63.3 °F /  17.4 °C 52.2 °F /  11.2 °C 29.8in /  1010.4hPa NNW 2.4mph /  3.9km/h 2.3mph /  3.7km/h 67% 0in /  0.0mm CLR
10:55 63.9 °F /  17.7 °C 52.7 °F /  11.5 °C 29.8in /  1010.4hPa West 2.4mph /  3.9km/h 2.3mph /  3.7km/h 67% 0in /  0.0mm CLR
11:00 64 °F /  17.8 °C 52.5 °F /  11.4 °C 29.8in /  1010.4hPa West 1mph /  1.6km/h 5mph /  8.0km/h 66% 0in /  0.0mm CLR
11:05 64.4 °F /  18.0 °C 52.3 °F /  11.3 °C 29.8in /  1010.5hPa West 1.4mph /  2.3km/h 3.5mph /  5.6km/h 65% 0in /  0.0mm CLR
11:10 64.8 °F /  18.2 °C 52.7 °F /  11.5 °C 29.8in /  1010.5hPa West 2mph /  3.2km/h 4.6mph /  7.4km/h 65% 0in /  0.0mm CLR
11:15 65.1 °F /  18.4 °C 53.1 °F /  11.7 °C 29.8in /  1010.5hPa West 2mph /  3.2km/h   65% 0in /  0.0mm CLR
11:20 65.8 °F /  18.8 °C 53.2 °F /  11.8 °C 29.8in /  1010.7hPa ENE 1.8mph /  2.9km/h 2.3mph /  3.7km/h 64% 0in /  0.0mm CLR
11:25 66.4 °F /  19.1 °C 53.4 °F /  11.9 °C 29.8in /  1010.7hPa SW 1.8mph /  2.9km/h 4.7mph /  7.6km/h 63% 0in /  0.0mm CLR
11:30 66.7 °F /  19.3 °C 53.2 °F /  11.8 °C 29.8in /  1010.7hPa SSE 2mph /  3.2km/h 10.4mph /  16.7km/h 62% 0in /  0.0mm CLR
11:35 67.3 °F /  19.6 °C 53.4 °F /  11.9 °C 29.8in /  1010.6hPa SSE 2mph /  3.2km/h 11.5mph /  18.5km/h 61% 0in /  0.0mm CLR
11:40 67.5 °F /  19.7 °C 53.1 °F /  11.7 °C 29.8in /  1010.6hPa South 5.9mph /  9.5km/h 9.2mph /  14.8km/h 60% 0in /  0.0mm CLR
11:45 67.6 °F /  19.8 °C 53.2 °F /  11.8 °C 29.8in /  1010.6hPa South 5.9mph /  9.5km/h 4.6mph /  7.4km/h 60% 0in /  0.0mm CLR
11:50 68 °F /  20.0 °C 53.1 °F /  11.7 °C 29.8in /  1010.5hPa South 4.7mph /  7.6km/h 4.6mph /  7.4km/h 59% 0in /  0.0mm CLR
11:55 68.4 °F /  20.2 °C 53.4 °F /  11.9 °C 29.8in /  1010.5hPa SSE 4.7mph /  7.6km/h 2.3mph /  3.7km/h 59% 0in /  0.0mm CLR
12:00 68.7 °F /  20.4 °C 53.4 °F /  11.9 °C 29.8in /  1010.5hPa South 2mph /  3.2km/h 5mph /  8.0km/h 58% 0in /  0.0mm CLR
12:05 68.7 °F /  20.4 °C 53.8 °F /  12.1 °C 29.8in /  1010.7hPa North 2mph /  3.2km/h 8.1mph /  13.0km/h 59% 0in /  0.0mm CLR
12:10 68.7 °F /  20.4 °C 54.3 °F /  12.4 °C 29.8in /  1010.7hPa NW 3.6mph /  5.8km/h 5.2mph /  8.4km/h 60% 0in /  0.0mm CLR
12:15 68.7 °F /  20.4 °C 53.2 °F /  11.8 °C 29.8in /  1010.7hPa West 3.6mph /  5.8km/h 5.8mph /  9.3km/h 58% 0in /  0.0mm CLR
12:20 68.7 °F /  20.4 °C 52.9 °F /  11.6 °C 29.8in /  1010.7hPa WSW 3.6mph /  5.8km/h 3.5mph /  5.6km/h 57% 0in /  0.0mm CLR
12:25 69.1 °F /  20.6 °C 52.7 °F /  11.5 °C 29.8in /  1010.7hPa WNW 3.6mph /  5.8km/h 4.6mph /  7.4km/h 56% 0in /  0.0mm CLR
12:30 69.3 °F /  20.7 °C 52.3 °F /  11.3 °C 29.8in /  1010.7hPa West 2.4mph /  3.9km/h 3.6mph /  5.8km/h 55% 0in /  0.0mm CLR
12:35 69.6 °F /  20.9 °C 51.6 °F /  10.9 °C 29.8in /  1010.6hPa West 2.4mph /  3.9km/h 6.9mph /  11.1km/h 53% 0in /  0.0mm CLR
12:40 69.8 °F /  21.0 °C 52 °F /  11.1 °C 29.8in /  1010.6hPa WNW 3.6mph /  5.8km/h 6.9mph /  11.1km/h 53% 0in /  0.0mm CLR
12:45 70 °F /  21.1 °C 52.2 °F /  11.2 °C 29.8in /  1010.6hPa West 3.6mph /  5.8km/h 8.1mph /  13.0km/h 53% 0in /  0.0mm CLR
12:50 70.3 °F /  21.3 °C 52 °F /  11.1 °C 29.8in /  1010.6hPa WNW 2.9mph /  4.7km/h 2.4mph /  3.9km/h 52% 0in /  0.0mm CLR
12:55 70.5 °F /  21.4 °C 52 °F /  11.1 °C 29.8in /  1010.6hPa SW 2.9mph /  4.7km/h 3.5mph /  5.6km/h 52% 0in /  0.0mm CLR
13:00 70.9 °F /  21.6 °C 52 °F /  11.1 °C 29.8in /  1010.6hPa WSW 2mph /  3.2km/h 5mph /  8.0km/h 51% 0in /  0.0mm CLR
13:05 71.4 °F /  21.9 °C 52.3 °F /  11.3 °C 29.8in /  1010.6hPa NE 1.8mph /  2.9km/h 4.6mph /  7.4km/h 51% 0in /  0.0mm CLR
13:10 72 °F /  22.2 °C 52.3 °F /  11.3 °C 29.8in /  1010.6hPa SSW 2mph /  3.2km/h 4.6mph /  7.4km/h 50% 0in /  0.0mm CLR
13:15 72.1 °F /  22.3 °C 52.5 °F /  11.4 °C 29.8in /  1010.6hPa South 2mph /  3.2km/h 4.6mph /  7.4km/h 50% 0in /  0.0mm CLR
13:20 72.1 °F /  22.3 °C 53.1 °F /  11.7 °C 29.8in /  1010.4hPa South 3.1mph /  5.0km/h 12.7mph /  20.4km/h 51% 0in /  0.0mm CLR
13:25 71.6 °F /  22.0 °C 53.1 °F /  11.7 °C 29.8in /  1010.4hPa South 3.1mph /  5.0km/h 5.8mph /  9.3km/h 52% 0in /  0.0mm CLR
13:30 71.8 °F /  22.1 °C 53.8 °F /  12.1 °C 29.8in /  1010.4hPa SW 5.4mph /  8.7km/h 2.4mph /  3.9km/h 53% 0in /  0.0mm CLR
13:35 72 °F /  22.2 °C 54 °F /  12.2 °C 29.8in /  1010.4hPa NE 5.4mph /  8.7km/h 2.3mph /  3.7km/h 53% 0in /  0.0mm CLR
13:40 72.1 °F /  22.3 °C 54.1 °F /  12.3 °C 29.8in /  1010.4hPa South 2mph /  3.2km/h 4.6mph /  7.4km/h 53% 0in /  0.0mm CLR
13:45 72.5 °F /  22.5 °C 54 °F /  12.2 °C 29.8in /  1010.4hPa SW 2mph /  3.2km/h 11.5mph /  18.5km/h 52% 0in /  0.0mm CLR
13:50 72.3 °F /  22.4 °C 53.8 °F /  12.1 °C 29.8in /  1010.4hPa WSW 4.7mph /  7.6km/h 12.7mph /  20.4km/h 52% 0in /  0.0mm CLR
13:55 72.1 °F /  22.3 °C 54.1 °F /  12.3 °C 29.8in /  1010.4hPa SW 4.7mph /  7.6km/h 11.5mph /  18.5km/h 53% 0in /  0.0mm CLR
14:00 72.1 °F /  22.3 °C 54 °F /  12.2 °C 29.8in /  1010.4hPa SW 8mph /  12.9km/h 14mph /  22.5km/h 53% 0in /  0.0mm CLR
14:05 72.1 °F /  22.3 °C 54.7 °F /  12.6 °C 29.8in /  1010.4hPa WSW 7.6mph /  12.2km/h 9.2mph /  14.8km/h 54% 0in /  0.0mm CLR
14:10 72.3 °F /  22.4 °C 54.7 °F /  12.6 °C 29.8in /  1010.4hPa West 6.9mph /  11.1km/h 16.1mph /  25.9km/h 54% 0in /  0.0mm CLR
14:15 71.8 °F /  22.1 °C 54.7 °F /  12.6 °C 29.8in /  1010.4hPa West 6.9mph /  11.1km/h 16.1mph /  25.9km/h 55% 0in /  0.0mm CLR
14:20 71.6 °F /  22.0 °C 55 °F /  12.8 °C 29.8in /  1010.5hPa NW 8.5mph /  13.7km/h 9.2mph /  14.8km/h 56% 0in /  0.0mm CLR
14:25 71.4 °F /  21.9 °C 52.9 °F /  11.6 °C 29.8in /  1010.5hPa WNW 8.5mph /  13.7km/h 16.1mph /  25.9km/h 52% 0in /  0.0mm CLR
14:30 71.1 °F /  21.7 °C 53.6 °F /  12.0 °C 29.8in /  1010.5hPa WNW 9.7mph /  15.6km/h 18.4mph /  29.6km/h 54% 0in /  0.0mm CLR
14:35 70 °F /  21.1 °C 54 °F /  12.2 °C 29.9in /  1010.8hPa NW 9.7mph /  15.6km/h 19.6mph /  31.5km/h 57% 0in /  0.0mm CLR
14:40 69.3 °F /  20.7 °C 53.8 °F /  12.1 °C 29.9in /  1010.8hPa NW 13.5mph /  21.7km/h 18.4mph /  29.6km/h 58% 0in /  0.0mm CLR
14:45 68.9 °F /  20.5 °C 54 °F /  12.2 °C 29.9in /  1010.8hPa NW 13.5mph /  21.7km/h 18.4mph /  29.6km/h 59% 0in /  0.0mm CLR
14:50 69.1 °F /  20.6 °C 54.7 °F /  12.6 °C 29.9in /  1010.8hPa WNW 11.8mph /  19.0km/h 16.1mph /  25.9km/h 60% 0in /  0.0mm CLR
14:55 68.7 °F /  20.4 °C 54.3 °F /  12.4 °C 29.9in /  1010.8hPa NW 11.8mph /  19.0km/h 13.8mph /  22.2km/h 60% 0in /  0.0mm CLR
15:00 68.5 °F /  20.3 °C 54.1 °F /  12.3 °C 29.9in /  1010.8hPa WNW 12mph /  19.3km/h 17mph /  27.4km/h 60% 0in /  0.0mm CLR
15:05 68.5 °F /  20.3 °C 53.6 °F /  12.0 °C 29.9in /  1010.9hPa NW 11.4mph /  18.3km/h 17.3mph /  27.8km/h 59% 0in /  0.0mm CLR
15:10 68.5 °F /  20.3 °C 53.6 °F /  12.0 °C 29.9in /  1010.9hPa WNW 10mph /  16.1km/h 11.5mph /  18.5km/h 59% 0in /  0.0mm CLR
15:15 68.5 °F /  20.3 °C 53.6 °F /  12.0 °C 29.9in /  1010.9hPa NW 10mph /  16.1km/h 11.5mph /  18.5km/h 59% 0in /  0.0mm CLR
15:20 68.7 °F /  20.4 °C 53.8 °F /  12.1 °C 29.9in /  1011.2hPa NNW 8.5mph /  13.7km/h 9.2mph /  14.8km/h 59% 0in /  0.0mm CLR
15:25 68.7 °F /  20.4 °C 53.2 °F /  11.8 °C 29.9in /  1011.2hPa WNW 8.5mph /  13.7km/h 11.5mph /  18.5km/h 58% 0in /  0.0mm CLR
15:30 69.3 °F /  20.7 °C 52.9 °F /  11.6 °C 29.9in /  1011.2hPa West 6.9mph /  11.1km/h 13.8mph /  22.2km/h 56% 0in /  0.0mm CLR
15:35 69.8 °F /  21.0 °C 53.4 °F /  11.9 °C 29.9in /  1011.1hPa WNW 6.9mph /  11.1km/h 11.5mph /  18.5km/h 56% 0in /  0.0mm CLR
15:40 70.2 °F /  21.2 °C 52.7 °F /  11.5 °C 29.9in /  1011.1hPa NNW 7.4mph /  11.9km/h 12.3mph /  19.8km/h 54% 0in /  0.0mm CLR
15:45 70.5 °F /  21.4 °C 52.5 °F /  11.4 °C 29.9in /  1011.1hPa WNW 7.4mph /  11.9km/h 12.7mph /  20.4km/h 53% 0in /  0.0mm CLR
15:50 70.7 °F /  21.5 °C 52.7 °F /  11.5 °C 29.9in /  1010.9hPa NNW 7.4mph /  11.9km/h 10mph /  16.1km/h 53% 0in /  0.0mm CLR
15:55 70.9 °F /  21.6 °C 51.8 °F /  11.0 °C 29.9in /  1010.9hPa NW 7.4mph /  11.9km/h 9.2mph /  14.8km/h 51% 0in /  0.0mm CLR
16:00 71.1 °F /  21.7 °C 52 °F /  11.1 °C 29.9in /  1010.9hPa NW 5mph /  8.0km/h 8mph /  12.9km/h 51% 0in /  0.0mm CLR
16:05 71.4 °F /  21.9 °C 52.3 °F /  11.3 °C 29.9in /  1010.9hPa SE 5.2mph /  8.4km/h 4.6mph /  7.4km/h 51% 0in /  0.0mm CLR
16:10 71.6 °F /  22.0 °C 52.5 °F /  11.4 °C 29.9in /  1010.9hPa NW 4mph /  6.4km/h 11.5mph /  18.5km/h 51% 0in /  0.0mm CLR
16:15 71.4 °F /  21.9 °C 51.8 °F /  11.0 °C 29.9in /  1010.9hPa WNW 4mph /  6.4km/h 12.5mph /  20.1km/h 50% 0in /  0.0mm CLR
16:20 71.2 °F /  21.8 °C 51.6 °F /  10.9 °C 29.9in /  1010.9hPa WNW 7.6mph /  12.2km/h 11.5mph /  18.5km/h 50% 0in /  0.0mm CLR
16:25 71.2 °F /  21.8 °C 51.6 °F /  10.9 °C 29.9in /  1010.9hPa West 7.6mph /  12.2km/h 12.7mph /  20.4km/h 50% 0in /  0.0mm CLR
16:30 71.4 °F /  21.9 °C 52.3 °F /  11.3 °C 29.9in /  1010.9hPa West 8.1mph /  13.0km/h 10.4mph /  16.7km/h 51% 0in /  0.0mm CLR
16:35 71.6 °F /  22.0 °C 52 °F /  11.1 °C 29.9in /  1010.8hPa WNW 8.1mph /  13.0km/h 4.6mph /  7.4km/h 50% 0in /  0.0mm CLR
16:40 72 °F /  22.2 °C 52.3 °F /  11.3 °C 29.9in /  1010.8hPa NW 3.6mph /  5.8km/h 5.8mph /  9.3km/h 50% 0in /  0.0mm CLR
16:45 72.1 °F /  22.3 °C 52 °F /  11.1 °C 29.9in /  1010.8hPa West 3.6mph /  5.8km/h 6.9mph /  11.1km/h 49% 0in /  0.0mm CLR
16:50 72.1 °F /  22.3 °C 52 °F /  11.1 °C 29.8in /  1010.7hPa WSW 4.7mph /  7.6km/h 6.9mph /  11.1km/h 49% 0in /  0.0mm CLR
16:55 72.5 °F /  22.5 °C 52.2 °F /  11.2 °C 29.8in /  1010.7hPa West 4.7mph /  7.6km/h 5.8mph /  9.3km/h 49% 0in /  0.0mm CLR
17:00 72.5 °F /  22.5 °C 52.2 °F /  11.2 °C 29.8in /  1010.7hPa West 5mph /  8.0km/h 8mph /  12.9km/h 49% 0in /  0.0mm CLR
17:05 73 °F /  22.8 °C 52.2 °F /  11.2 °C 29.8in /  1010.6hPa WSW 4.3mph /  6.9km/h 9.2mph /  14.8km/h 48% 0in /  0.0mm CLR
17:10 73.6 °F /  23.1 °C 52.2 °F /  11.2 °C 29.8in /  1010.6hPa South 5.4mph /  8.7km/h 5.8mph /  9.3km/h 47% 0in /  0.0mm CLR
17:15 73.8 °F /  23.2 °C 52.3 °F /  11.3 °C 29.8in /  1010.6hPa West 5.4mph /  8.7km/h 8.1mph /  13.0km/h 47% 0in /  0.0mm CLR
17:20 73.8 °F /  23.2 °C 51.6 °F /  10.9 °C 29.8in /  1010.6hPa NW 4.3mph /  6.9km/h 4.6mph /  7.4km/h 46% 0in /  0.0mm CLR
17:25 73.9 °F /  23.3 °C 51.8 °F /  11.0 °C 29.8in /  1010.6hPa South 4.3mph /  6.9km/h 8.1mph /  13.0km/h 46% 0in /  0.0mm CLR
17:30 73.9 °F /  23.3 °C 52.3 °F /  11.3 °C 29.8in /  1010.6hPa ESE 4mph /  6.4km/h 5.8mph /  9.3km/h 47% 0in /  0.0mm CLR
17:35 74.3 °F /  23.5 °C 52.2 °F /  11.2 °C 29.8in /  1010.5hPa SW 4mph /  6.4km/h 8.1mph /  13.0km/h 46% 0in /  0.0mm CLR
17:40 74.1 °F /  23.4 °C 52 °F /  11.1 °C 29.8in /  1010.5hPa SSE 4.7mph /  7.6km/h 8.1mph /  13.0km/h 46% 0in /  0.0mm CLR
17:45 74.1 °F /  23.4 °C 52 °F /  11.1 °C 29.8in /  1010.5hPa WSW 4.7mph /  7.6km/h 4.6mph /  7.4km/h 46% 0in /  0.0mm CLR
17:50 74.5 °F /  23.6 °C 51.1 °F /  10.6 °C 29.8in /  1010.6hPa West 4.7mph /  7.6km/h 9.2mph /  14.8km/h 44% 0in /  0.0mm CLR
17:55 74.5 °F /  23.6 °C 51.1 °F /  10.6 °C 29.8in /  1010.6hPa West 4.7mph /  7.6km/h 4.6mph /  7.4km/h 44% 0in /  0.0mm CLR
18:00 74.7 °F /  23.7 °C 51.3 °F /  10.7 °C 29.8in /  1010.6hPa West 5mph /  8.0km/h 7mph /  11.3km/h 44% 0in /  0.0mm CLR
18:05 74.5 °F /  23.6 °C 51.1 °F /  10.6 °C 29.9in /  1010.8hPa North 4mph /  6.4km/h 4.6mph /  7.4km/h 44% 0in /  0.0mm CLR
18:10 74.5 °F /  23.6 °C 50.5 °F /  10.3 °C 29.9in /  1010.8hPa NNE 3.6mph /  5.8km/h 6.9mph /  11.1km/h 43% 0in /  0.0mm CLR
18:15 74.5 °F /  23.6 °C 50.5 °F /  10.3 °C 29.9in /  1010.8hPa WNW 3.6mph /  5.8km/h 6.2mph /  10.0km/h 43% 0in /  0.0mm CLR
18:20 74.7 °F /  23.7 °C 50.7 °F /  10.4 °C 29.9in /  1011.0hPa NW 4mph /  6.4km/h 4.6mph /  7.4km/h 43% 0in /  0.0mm CLR
18:25 74.7 °F /  23.7 °C 50 °F /  10.0 °C 29.9in /  1011.0hPa SSE 4mph /  6.4km/h 6.9mph /  11.1km/h 42% 0in /  0.0mm CLR
18:30 74.5 °F /  23.6 °C 49.3 °F /  9.6 °C 29.9in /  1011.0hPa West 3.6mph /  5.8km/h 15mph /  24.1km/h 41% 0in /  0.0mm CLR
18:35 74.5 °F /  23.6 °C 47.1 °F /  8.4 °C 29.9in /  1011.0hPa SW 3.6mph /  5.8km/h 13.8mph /  22.2km/h 38% 0in /  0.0mm CLR
18:40 74.8 °F /  23.8 °C 46 °F /  7.8 °C 29.9in /  1011.0hPa SW 8.5mph /  13.7km/h 18.4mph /  29.6km/h 36% 0in /  0.0mm CLR
18:45 75 °F /  23.9 °C 45.5 °F /  7.5 °C 29.9in /  1011.0hPa West 8.5mph /  13.7km/h 15mph /  24.1km/h 35% 0in /  0.0mm CLR
18:50 75.2 °F /  24.0 °C 44.1 °F /  6.7 °C 29.9in /  1011.0hPa SW 10.2mph /  16.4km/h 13.8mph /  22.2km/h 33% 0in /  0.0mm CLR
18:55 75.2 °F /  24.0 °C 44.1 °F /  6.7 °C 29.9in /  1011.0hPa WSW 10.2mph /  16.4km/h 17.3mph /  27.8km/h 33% 0in /  0.0mm CLR
19:00 75 °F /  23.9 °C 44.1 °F /  6.7 °C 29.9in /  1011.0hPa SW 10mph /  16.1km/h 17mph /  27.4km/h 33% 0in /  0.0mm CLR
19:05 75 °F /  23.9 °C 44.8 °F /  7.1 °C 29.9in /  1011.1hPa NNW 10.2mph /  16.4km/h 9.7mph /  15.6km/h 34% 0in /  0.0mm CLR
19:10 75 °F /  23.9 °C 44.8 °F /  7.1 °C 29.9in /  1011.1hPa SW 7.4mph /  11.9km/h 10.4mph /  16.7km/h 34% 0in /  0.0mm CLR
19:15 74.8 °F /  23.8 °C 44.6 °F /  7.0 °C 29.9in /  1011.1hPa West 7.4mph /  11.9km/h 13.8mph /  22.2km/h 34% 0in /  0.0mm CLR
19:20 74.5 °F /  23.6 °C 45 °F /  7.2 °C 29.9in /  1011.2hPa WNW 8.5mph /  13.7km/h 20.7mph /  33.3km/h 35% 0in /  0.0mm CLR
19:25 73.9 °F /  23.3 °C 45.3 °F /  7.4 °C 29.9in /  1011.2hPa WNW 8.5mph /  13.7km/h 10.4mph /  16.7km/h 36% 0in /  0.0mm CLR
19:30 73.8 °F /  23.2 °C 45.1 °F /  7.3 °C 29.9in /  1011.2hPa West 9.2mph /  14.8km/h 8.1mph /  13.0km/h 36% 0in /  0.0mm CLR
19:35 73.6 °F /  23.1 °C 45.7 °F /  7.6 °C 29.9in /  1011.4hPa West 9.2mph /  14.8km/h 8.1mph /  13.0km/h 37% 0in /  0.0mm CLR
19:40 73.6 °F /  23.1 °C 45 °F /  7.2 °C 29.9in /  1011.4hPa West 4.7mph /  7.6km/h 10.4mph /  16.7km/h 36% 0in /  0.0mm CLR
19:45 73.8 °F /  23.2 °C 45.9 °F /  7.7 °C 29.9in /  1011.4hPa SW 4.7mph /  7.6km/h 5.8mph /  9.3km/h 37% 0in /  0.0mm CLR
19:50 74.3 °F /  23.5 °C 45.7 °F /  7.6 °C 29.9in /  1011.6hPa SW 5.2mph /  8.4km/h 8.1mph /  13.0km/h 36% 0in /  0.0mm CLR
19:55 74.7 °F /  23.7 °C 45.1 °F /  7.3 °C 29.9in /  1011.6hPa West 5.2mph /  8.4km/h 12.7mph /  20.4km/h 35% 0in /  0.0mm CLR
20:00 74.5 °F /  23.6 °C 44.2 °F /  6.8 °C 29.9in /  1011.6hPa WSW 7mph /  11.3km/h 16mph /  25.7km/h 34% 0in /  0.0mm CLR
20:05 74.1 °F /  23.4 °C 43.9 °F /  6.6 °C 29.9in /  1011.8hPa NW 7.4mph /  11.9km/h 13.5mph /  21.7km/h 34% 0in /  0.0mm CLR
20:10 73.8 °F /  23.2 °C 43 °F /  6.1 °C 29.9in /  1011.8hPa West 8.5mph /  13.7km/h 20.7mph /  33.3km/h 33% 0in /  0.0mm CLR
20:15 73.2 °F /  22.9 °C 42.4 °F /  5.8 °C 29.9in /  1011.8hPa West 8.5mph /  13.7km/h 17.3mph /  27.8km/h 33% 0in /  0.0mm CLR
20:20 73 °F /  22.8 °C 42.3 °F /  5.7 °C 29.9in /  1012.2hPa West 11.8mph /  19.0km/h 17.3mph /  27.8km/h 33% 0in /  0.0mm CLR
20:25 73 °F /  22.8 °C 42.3 °F /  5.7 °C 29.9in /  1012.2hPa NW 11.8mph /  19.0km/h 11.5mph /  18.5km/h 33% 0in /  0.0mm CLR
20:30 72.7 °F /  22.6 °C 42.6 °F /  5.9 °C 29.9in /  1012.2hPa North 9.2mph /  14.8km/h 15mph /  24.1km/h 34% 0in /  0.0mm CLR
20:35 71.1 °F /  21.7 °C 44.2 °F /  6.8 °C 29.9in /  1012.7hPa West 9.2mph /  14.8km/h 13.8mph /  22.2km/h 38% 0in /  0.0mm CLR
20:40 68.7 °F /  20.4 °C 44.8 °F /  7.1 °C 29.9in /  1012.7hPa WNW 10.7mph /  17.2km/h 26.5mph /  42.6km/h 42% 0in /  0.0mm CLR
20:45 67.5 °F /  19.7 °C 44.8 °F /  7.1 °C 29.9in /  1012.7hPa NW 10.7mph /  17.2km/h 12.7mph /  20.4km/h 44% 0in /  0.0mm CLR
20:50 66.9 °F /  19.4 °C 45 °F /  7.2 °C 29.9in /  1013.2hPa NW 13mph /  20.9km/h 16.3mph /  26.2km/h 45% 0in /  0.0mm CLR
20:55 66.7 °F /  19.3 °C 44.8 °F /  7.1 °C 29.9in /  1013.2hPa WNW 13mph /  20.9km/h 15mph /  24.1km/h 45% 0in /  0.0mm CLR
21:00 66.7 °F /  19.3 °C 44.8 °F /  7.1 °C 29.9in /  1013.2hPa WNW 12mph /  19.3km/h 17mph /  27.4km/h 45% 0in /  0.0mm CLR
21:05 66.6 °F /  19.2 °C 44.4 °F /  6.9 °C 29.9in /  1013.7hPa WNW 11.4mph /  18.3km/h 16.1mph /  25.9km/h 45% 0in /  0.0mm CLR
21:10 66.4 °F /  19.1 °C 45 °F /  7.2 °C 29.9in /  1013.7hPa NW 10.7mph /  17.2km/h 17.3mph /  27.8km/h 46% 0in /  0.0mm CLR
21:15 66 °F /  18.9 °C 45.1 °F /  7.3 °C 29.9in /  1013.7hPa WNW 10.7mph /  17.2km/h 13.8mph /  22.2km/h 47% 0in /  0.0mm CLR
21:20 65.8 °F /  18.8 °C 45 °F /  7.2 °C 29.9in /  1013.8hPa NW 9.2mph /  14.8km/h 15mph /  24.1km/h 47% 0in /  0.0mm CLR
21:25 65.7 °F /  18.7 °C 45 °F /  7.2 °C 29.9in /  1013.8hPa WNW 9.2mph /  14.8km/h 11.5mph /  18.5km/h 47% 0in /  0.0mm CLR
21:30 65.5 °F /  18.6 °C 45.3 °F /  7.4 °C 29.9in /  1013.8hPa WNW 9.2mph /  14.8km/h 11.8mph /  19.0km/h 48% 0in /  0.0mm CLR
21:35 65.5 °F /  18.6 °C 45.3 °F /  7.4 °C 29.9in /  1014.0hPa West 9.2mph /  14.8km/h 10.2mph /  16.4km/h 48% 0in /  0.0mm CLR
21:40 65.5 °F /  18.6 °C 45.3 °F /  7.4 °C 29.9in /  1014.0hPa WNW 8.1mph /  13.0km/h 12.7mph /  20.4km/h 48% 0in /  0.0mm CLR
21:45 65.3 °F /  18.5 °C 45.1 °F /  7.3 °C 29.9in /  1014.0hPa West 8.1mph /  13.0km/h 16.3mph /  26.2km/h 48% 0in /  0.0mm CLR
21:50 65.5 °F /  18.6 °C 44.8 °F /  7.1 °C 30in /  1014.5hPa WNW 10mph /  16.1km/h 20.7mph /  33.3km/h 47% 0in /  0.0mm CLR
21:55 65.5 °F /  18.6 °C 44.8 °F /  7.1 °C 30in /  1014.5hPa NW 10mph /  16.1km/h 19.6mph /  31.5km/h 47% 0in /  0.0mm CLR
22:00 65.3 °F /  18.5 °C 45.1 °F /  7.3 °C 30in /  1014.5hPa WNW 13mph /  20.9km/h 23mph /  37.0km/h 48% 0in /  0.0mm CLR
22:05 64.9 °F /  18.3 °C 44.8 °F /  7.1 °C 30in /  1014.9hPa NW 12.3mph /  19.8km/h 21.9mph /  35.2km/h 48% 0in /  0.0mm CLR
22:10 64.6 °F /  18.1 °C 45 °F /  7.2 °C 30in /  1014.9hPa NNW 15.2mph /  24.5km/h 24.2mph /  38.9km/h 49% 0in /  0.0mm CLR
22:15 64.2 °F /  17.9 °C 44.6 °F /  7.0 °C 30in /  1014.9hPa WNW 15.2mph /  24.5km/h 25.3mph /  40.7km/h 49% 0in /  0.0mm CLR
22:20 64 °F /  17.8 °C 44.4 °F /  6.9 °C 30in /  1015.2hPa WNW 15.2mph /  24.5km/h 24.2mph /  38.9km/h 49% 0in /  0.0mm CLR
22:25 63.9 °F /  17.7 °C 44.2 °F /  6.8 °C 30in /  1015.2hPa NW 15.2mph /  24.5km/h 25.3mph /  40.7km/h 49% 0in /  0.0mm CLR
22:30 63.7 °F /  17.6 °C 44.8 °F /  7.1 °C 30in /  1015.2hPa WNW 14.5mph /  23.3km/h 24.2mph /  38.9km/h 50% 0in /  0.0mm CLR
22:35 63.7 °F /  17.6 °C 44.8 °F /  7.1 °C 30in /  1015.6hPa WNW 14.5mph /  23.3km/h 15mph /  24.1km/h 50% 0in /  0.0mm CLR
22:40 63.3 °F /  17.4 °C 44.4 °F /  6.9 °C 30in /  1015.6hPa WNW 13mph /  20.9km/h 13.8mph /  22.2km/h 50% 0in /  0.0mm CLR
22:45 63.3 °F /  17.4 °C 44.4 °F /  6.9 °C 30in /  1015.6hPa WNW 13mph /  20.9km/h 20.7mph /  33.3km/h 50% 0in /  0.0mm CLR
22:50 63.1 °F /  17.3 °C 44.2 °F /  6.8 °C 30in /  1015.8hPa West 11.4mph /  18.3km/h 23mph /  37.0km/h 50% 0in /  0.0mm CLR
22:55 63.1 °F /  17.3 °C 44.2 °F /  6.8 °C 30in /  1015.8hPa WNW 11.4mph /  18.3km/h 18.4mph /  29.6km/h 50% 0in /  0.0mm CLR
23:00 63 °F /  17.2 °C 44.4 °F /  6.9 °C 30in /  1015.8hPa WNW 13mph /  20.9km/h 23mph /  37.0km/h 51% 0in /  0.0mm CLR
23:05 62.8 °F /  17.1 °C 44.4 °F /  6.9 °C 30in /  1016.2hPa WNW 13mph /  20.9km/h 19.6mph /  31.5km/h 51% 0in /  0.0mm CLR
23:10 62.4 °F /  16.9 °C 44.6 °F /  7.0 °C 30in /  1016.2hPa WNW 12.3mph /  19.8km/h 16.1mph /  25.9km/h 52% 0in /  0.0mm CLR
23:15 62.4 °F /  16.9 °C 44.6 °F /  7.0 °C 30in /  1016.2hPa West 12.3mph /  19.8km/h 17.3mph /  27.8km/h 52% 0in /  0.0mm CLR
23:20 62.4 °F /  16.9 °C 44.6 °F /  7.0 °C 30in /  1016.5hPa WNW 10.7mph /  17.2km/h 18.4mph /  29.6km/h 52% 0in /  0.0mm CLR
23:25 62.6 °F /  17.0 °C 44.8 °F /  7.1 °C 30in /  1016.5hPa West 10.7mph /  17.2km/h 18.4mph /  29.6km/h 52% 0in /  0.0mm CLR
23:30 62.4 °F /  16.9 °C 44.6 °F /  7.0 °C 30in /  1016.5hPa West 11.8mph /  19.0km/h 16.1mph /  25.9km/h 52% 0in /  0.0mm CLR
23:35 62.2 °F /  16.8 °C 44.4 °F /  6.9 °C 30in /  1016.7hPa WNW 11.8mph /  19.0km/h 9.2mph /  14.8km/h 52% 0in /  0.0mm CLR
23:40 62.2 °F /  16.8 °C 45 °F /  7.2 °C 30in /  1016.7hPa West 8.5mph /  13.7km/h 11.5mph /  18.5km/h 53% 0in /  0.0mm CLR
23:45 62.1 °F /  16.7 °C 44.2 °F /  6.8 °C 30in /  1016.7hPa WNW 8.5mph /  13.7km/h 12.7mph /  20.4km/h 52% 0in /  0.0mm CLR
23:50 62.1 °F /  16.7 °C 44.8 °F /  7.1 °C 30in /  1016.8hPa West 7.6mph /  12.2km/h 9.2mph /  14.8km/h 53% 0in /  0.0mm CLR
23:55 62.1 °F /  16.7 °C 44.8 °F /  7.1 °C 30in /  1016.8hPa NW 7.6mph /  12.2km/h 6.9mph /  11.1km/h 53% 0in /  0.0mm CLR
Murcia-Puente Tocinos, España
Compliments of Weather Underground - 2.5 mb

La estación de MeteoMurcia.com, publica sus datos en los siguientes proyectos:

Weather Underground PWS IMURCIAP2 Meteoclimatic www.awekas.at

W3Counter
Web Analytics